sensor_id;sensor_type;location;lat;lon;timestamp;pressure;altitude;pressure_sealevel;temperature;humidity
9474;BME280;8865;47.636;7.692;2023-03-20T00:01:14;98693.25;;;8.21;100.00
9474;BME280;8865;47.636;7.692;2023-03-20T00:03:41;98695.63;;;8.24;100.00
9474;BME280;8865;47.636;7.692;2023-03-20T00:06:14;98697.31;;;8.25;100.00
9474;BME280;8865;47.636;7.692;2023-03-20T00:08:41;98702.22;;;8.30;100.00
9474;BME280;8865;47.636;7.692;2023-03-20T00:11:29;98704.72;;;8.31;100.00
9474;BME280;8865;47.636;7.692;2023-03-20T00:14:17;98712.13;;;8.25;100.00
9474;BME280;8865;47.636;7.692;2023-03-20T00:16:45;98712.88;;;8.27;100.00
9474;BME280;8865;47.636;7.692;2023-03-20T00:19:19;98702.44;;;8.27;100.00
9474;BME280;8865;47.636;7.692;2023-03-20T00:21:45;98714.31;;;8.31;100.00
9474;BME280;8865;47.636;7.692;2023-03-20T00:24:13;98710.56;;;8.35;100.00
9474;BME280;8865;47.636;7.692;2023-03-20T00:26:41;98703.44;;;8.37;100.00
9474;BME280;8865;47.636;7.692;2023-03-20T00:29:32;98703.34;;;8.38;100.00
9474;BME280;8865;47.636;7.692;2023-03-20T00:31:58;98713.66;;;8.40;100.00
9474;BME280;8865;47.636;7.692;2023-03-20T00:34:26;98700.63;;;8.40;100.00
9474;BME280;8865;47.636;7.692;2023-03-20T00:36:54;98714.34;;;8.44;100.00
9474;BME280;8865;47.636;7.692;2023-03-20T00:39:21;98709.94;;;8.44;100.00
9474;BME280;8865;47.636;7.692;2023-03-20T00:42:02;98712.56;;;8.44;100.00
9474;BME280;8865;47.636;7.692;2023-03-20T00:44:38;98713.66;;;8.40;100.00
9474;BME280;8865;47.636;7.692;2023-03-20T00:47:17;98717.97;;;8.41;100.00
9474;BME280;8865;47.636;7.692;2023-03-20T00:49:46;98722.16;;;8.44;100.00
9474;BME280;8865;47.636;7.692;2023-03-20T00:52:12;98717.66;;;8.46;100.00
9474;BME280;8865;47.636;7.692;2023-03-20T00:54:39;98708.25;;;8.43;100.00
9474;BME280;8865;47.636;7.692;2023-03-20T00:57:10;98710.34;;;8.38;100.00
9474;BME280;8865;47.636;7.692;2023-03-20T00:59:41;98707.50;;;8.41;100.00
9474;BME280;8865;47.636;7.692;2023-03-20T01:02:15;98707.41;;;8.43;100.00
9474;BME280;8865;47.636;7.692;2023-03-20T01:04:41;98702.75;;;8.48;100.00
9474;BME280;8865;47.636;7.692;2023-03-20T01:07:11;98705.56;;;8.45;100.00
9474;BME280;8865;47.636;7.692;2023-03-20T01:09:38;98708.78;;;8.48;100.00
9474;BME280;8865;47.636;7.692;2023-03-20T01:12:05;98705.97;;;8.51;100.00
9474;BME280;8865;47.636;7.692;2023-03-20T01:14:32;98705.25;;;8.49;100.00
9474;BME280;8865;47.636;7.692;2023-03-20T01:16:59;98708.38;;;8.54;100.00
9474;BME280;8865;47.636;7.692;2023-03-20T01:19:25;98703.84;;;8.56;100.00
9474;BME280;8865;47.636;7.692;2023-03-20T01:21:51;98707.44;;;8.55;100.00
9474;BME280;8865;47.636;7.692;2023-03-20T01:24:17;98701.34;;;8.55;100.00
9474;BME280;8865;47.636;7.692;2023-03-20T01:26:44;98706.56;;;8.55;100.00
9474;BME280;8865;47.636;7.692;2023-03-20T01:29:24;98703.84;;;8.56;100.00
9474;BME280;8865;47.636;7.692;2023-03-20T01:31:52;98703.13;;;8.54;100.00
9474;BME280;8865;47.636;7.692;2023-03-20T01:34:18;98704.72;;;8.57;100.00
9474;BME280;8865;47.636;7.692;2023-03-20T01:36:50;98703.03;;;8.56;100.00
9474;BME280;8865;47.636;7.692;2023-03-20T01:39:18;98701.13;;;8.58;100.00
9474;BME280;8865;47.636;7.692;2023-03-20T01:41:47;98703.63;;;8.60;100.00
9474;BME280;8865;47.636;7.692;2023-03-20T01:44:28;98703.63;;;8.60;100.00
9474;BME280;8865;47.636;7.692;2023-03-20T01:46:55;98706.13;;;8.61;100.00
9474;BME280;8865;47.636;7.692;2023-03-20T01:51:48;98702.81;;;8.59;100.00
9474;BME280;8865;47.636;7.692;2023-03-20T01:54:19;98702.81;;;8.59;100.00
9474;BME280;8865;47.636;7.692;2023-03-20T01:59:35;98705.31;;;8.61;100.00
9474;BME280;8865;47.636;7.692;2023-03-20T02:02:04;98703.63;;;8.60;100.00
9474;BME280;8865;47.636;7.692;2023-03-20T02:04:40;98701.13;;;8.58;100.00
9474;BME280;8865;47.636;7.692;2023-03-20T02:07:09;98700.31;;;8.57;100.00
9474;BME280;8865;47.636;7.692;2023-03-20T02:09:36;98705.44;;;8.59;100.00
9474;BME280;8865;47.636;7.692;2023-03-20T02:12:02;98701.03;;;8.60;100.00
9474;BME280;8865;47.636;7.692;2023-03-20T02:14:29;98709.94;;;8.57;100.00
9474;BME280;8865;47.636;7.692;2023-03-20T02:16:57;98712.13;;;8.50;100.00
9474;BME280;8865;47.636;7.692;2023-03-20T02:31:40;98710.88;;;8.43;100.00
9474;BME280;8865;47.636;7.692;2023-03-20T02:42:56;98727.91;;;8.49;100.00
9474;BME280;8865;47.636;7.692;2023-03-20T02:45:35;98728.63;;;8.51;100.00
9474;BME280;8865;47.636;7.692;2023-03-20T02:53:37;98733.88;;;8.51;100.00
9474;BME280;8865;47.636;7.692;2023-03-20T02:59:27;98737.09;;;8.54;100.00
9474;BME280;8865;47.636;7.692;2023-03-20T03:02:16;98744.19;;;8.52;100.00
9474;BME280;8865;47.636;7.692;2023-03-20T03:04:51;98741.47;;;8.54;100.00
9474;BME280;8865;47.636;7.692;2023-03-20T03:07:23;98745.63;;;8.56;100.00
9474;BME280;8865;47.636;7.692;2023-03-20T03:10:07;98752.44;;;8.59;100.00
9474;BME280;8865;47.636;7.692;2023-03-20T03:12:37;98750.75;;;8.58;100.00
9474;BME280;8865;47.636;7.692;2023-03-20T03:15:12;98752.53;;;8.57;100.00
9474;BME280;8865;47.636;7.692;2023-03-20T03:17:41;98751.72;;;8.57;100.00
9474;BME280;8865;47.636;7.692;2023-03-20T03:20:22;98764.22;;;8.65;100.00
9474;BME280;8865;47.636;7.692;2023-03-20T03:22:50;98761.50;;;8.66;100.00
9474;BME280;8865;47.636;7.692;2023-03-20T03:25:16;98760.88;;;8.63;100.00
9474;BME280;8865;47.636;7.692;2023-03-20T03:27:45;98764.00;;;8.68;100.00
9474;BME280;8865;47.636;7.692;2023-03-20T03:30:22;98764.50;;;8.73;100.00
9474;BME280;8865;47.636;7.692;2023-03-20T03:33:11;98767.72;;;8.76;100.00
9474;BME280;8865;47.636;7.692;2023-03-20T03:35:40;98764.19;;;8.78;100.00
9474;BME280;8865;47.636;7.692;2023-03-20T03:41:23;98769.09;;;8.82;100.00
9474;BME280;8865;47.636;7.692;2023-03-20T03:44:04;98767.19;;;8.84;100.00
9474;BME280;8865;47.636;7.692;2023-03-20T03:46:49;98764.69;;;8.83;100.00
9474;BME280;8865;47.636;7.692;2023-03-20T03:49:38;98767.06;;;8.86;100.00
9474;BME280;8865;47.636;7.692;2023-03-20T03:52:10;98770.53;;;8.86;100.00
9474;BME280;8865;47.636;7.692;2023-03-20T03:54:44;98768.66;;;8.88;100.00
9474;BME280;8865;47.636;7.692;2023-03-20T03:57:14;98768.53;;;8.90;100.00
9474;BME280;8865;47.636;7.692;2023-03-20T03:59:45;98773.44;;;8.94;100.00
9474;BME280;8865;47.636;7.692;2023-03-20T04:02:12;98771.88;;;8.92;100.00
9474;BME280;8865;47.636;7.692;2023-03-20T04:04:42;98767.59;;;8.91;100.00
9474;BME280;8865;47.636;7.692;2023-03-20T04:07:10;98765.44;;;8.85;100.00
9474;BME280;8865;47.636;7.692;2023-03-20T04:09:36;98765.31;;;8.86;100.00
9474;BME280;8865;47.636;7.692;2023-03-20T04:12:02;98771.03;;;8.91;100.00
9474;BME280;8865;47.636;7.692;2023-03-20T04:14:28;98773.31;;;8.96;100.00
9474;BME280;8865;47.636;7.692;2023-03-20T04:16:54;98770.00;;;8.94;100.00
9474;BME280;8865;47.636;7.692;2023-03-20T04:19:20;98766.31;;;8.97;100.00
9474;BME280;8865;47.636;7.692;2023-03-20T04:21:46;98764.56;;;8.97;100.00
9474;BME280;8865;47.636;7.692;2023-03-20T04:24:12;98767.06;;;8.99;100.00
9474;BME280;8865;47.636;7.692;2023-03-20T04:26:38;98759.34;;;8.97;100.00
9474;BME280;8865;47.636;7.692;2023-03-20T04:29:04;98760.81;;;8.88;100.00
9474;BME280;8865;47.636;7.692;2023-03-20T04:31:30;98765.00;;;8.91;100.00
9474;BME280;8865;47.636;7.692;2023-03-20T04:33:57;98762.50;;;8.89;100.00
9474;BME280;8865;47.636;7.692;2023-03-20T04:36:23;98758.41;;;8.85;100.00
9474;BME280;8865;47.636;7.692;2023-03-20T04:38:49;98758.91;;;8.90;100.00
9474;BME280;8865;47.636;7.692;2023-03-20T04:41:15;98757.06;;;8.92;100.00
9474;BME280;8865;47.636;7.692;2023-03-20T04:43:41;98759.56;;;8.94;100.00
9474;BME280;8865;47.636;7.692;2023-03-20T04:46:07;98762.88;;;8.96;100.00
9474;BME280;8865;47.636;7.692;2023-03-20T04:48:33;98760.88;;;9.00;100.00
9474;BME280;8865;47.636;7.692;2023-03-20T04:50:59;98766.09;;;9.00;100.00
9474;BME280;8865;47.636;7.692;2023-03-20T04:53:25;98769.78;;;8.97;100.00
9474;BME280;8865;47.636;7.692;2023-03-20T04:55:51;98775.13;;;8.96;100.00
9474;BME280;8865;47.636;7.692;2023-03-20T04:58:17;98777.72;;;8.96;100.00
9474;BME280;8865;47.636;7.692;2023-03-20T05:00:43;98781.28;;;8.94;100.00
9474;BME280;8865;47.636;7.692;2023-03-20T05:03:10;98776.06;;;8.94;100.00
9474;BME280;8865;47.636;7.692;2023-03-20T05:05:36;98787.44;;;8.93;100.00
9474;BME280;8865;47.636;7.692;2023-03-20T05:08:04;98784.81;;;8.93;100.00
9474;BME280;8865;47.636;7.692;2023-03-20T05:10:30;98783.06;;;8.94;100.00
9474;BME280;8865;47.636;7.692;2023-03-20T05:12:56;98781.28;;;8.94;100.00
9474;BME280;8865;47.636;7.692;2023-03-20T05:15:22;98781.16;;;8.96;100.00
9474;BME280;8865;47.636;7.692;2023-03-20T05:17:48;98766.44;;;8.95;100.00
9474;BME280;8865;47.636;7.692;2023-03-20T05:20:14;98768.31;;;8.93;100.00
9474;BME280;8865;47.636;7.692;2023-03-20T05:22:41;98761.41;;;8.92;100.00
9474;BME280;8865;47.636;7.692;2023-03-20T05:25:07;98763.91;;;8.93;100.00
9474;BME280;8865;47.636;7.692;2023-03-20T05:27:33;98767.50;;;8.92;100.00
9474;BME280;8865;47.636;7.692;2023-03-20T05:29:59;98770.22;;;8.91;100.00
9474;BME280;8865;47.636;7.692;2023-03-20T05:32:25;98778.16;;;8.89;100.00
9474;BME280;8865;47.636;7.692;2023-03-20T05:34:51;98788.63;;;8.89;100.00
9474;BME280;8865;47.636;7.692;2023-03-20T05:37:17;98792.97;;;8.89;100.00
9474;BME280;8865;47.636;7.692;2023-03-20T05:39:43;98782.53;;;8.89;100.00
9474;BME280;8865;47.636;7.692;2023-03-20T05:42:09;98786.94;;;8.88;100.00
9474;BME280;8865;47.636;7.692;2023-03-20T05:44:35;98782.53;;;8.89;100.00
9474;BME280;8865;47.636;7.692;2023-03-20T05:47:01;98789.34;;;8.91;100.00
9474;BME280;8865;47.636;7.692;2023-03-20T05:49:27;98799.06;;;8.89;100.00
9474;BME280;8865;47.636;7.692;2023-03-20T05:51:53;98807.72;;;8.90;100.00
9474;BME280;8865;47.636;7.692;2023-03-20T05:54:19;98805.00;;;8.91;100.00
9474;BME280;8865;47.636;7.692;2023-03-20T05:56:45;98804.91;;;8.93;100.00
9474;BME280;8865;47.636;7.692;2023-03-20T05:59:11;98800.38;;;8.95;100.00
9474;BME280;8865;47.636;7.692;2023-03-20T06:01:37;98802.19;;;8.94;100.00
9474;BME280;8865;47.636;7.692;2023-03-20T06:04:03;98805.28;;;9.00;100.00
9474;BME280;8865;47.636;7.692;2023-03-20T06:06:29;98808.66;;;9.02;100.00
9474;BME280;8865;47.636;7.692;2023-03-20T06:08:55;98815.31;;;9.06;100.00
9474;BME280;8865;47.636;7.692;2023-03-20T06:11:21;98809.97;;;9.07;100.00
9474;BME280;8865;47.636;7.692;2023-03-20T06:13:47;98813.22;;;9.11;100.00
9474;BME280;8865;47.636;7.692;2023-03-20T06:16:14;98813.53;;;9.06;100.00
9474;BME280;8865;47.636;7.692;2023-03-20T06:18:40;98812.59;;;9.07;100.00
9474;BME280;8865;47.636;7.692;2023-03-20T06:21:06;98809.63;;;9.12;100.00
9474;BME280;8865;47.636;7.692;2023-03-20T06:23:32;98803.38;;;9.15;100.00
9474;BME280;8865;47.636;7.692;2023-03-20T06:25:58;98804.63;;;9.09;100.00
9474;BME280;8865;47.636;7.692;2023-03-20T06:28:24;98796.47;;;9.14;100.00
9474;BME280;8865;47.636;7.692;2023-03-20T06:30:51;98795.53;;;9.15;100.00
9474;BME280;8865;47.636;7.692;2023-03-20T06:33:18;98802.81;;;9.22;100.00
9474;BME280;8865;47.636;7.692;2023-03-20T06:35:47;98805.00;;;9.28;100.00
9474;BME280;8865;47.636;7.692;2023-03-20T06:38:14;98797.66;;;9.34;100.00
9474;BME280;8865;47.636;7.692;2023-03-20T06:40:40;98800.66;;;9.40;100.00
9474;BME280;8865;47.636;7.692;2023-03-20T06:43:06;98797.84;;;9.43;100.00
9474;BME280;8865;47.636;7.692;2023-03-20T06:45:32;98800.09;;;9.48;100.00
9474;BME280;8865;47.636;7.692;2023-03-20T06:47:58;98808.56;;;9.52;100.00
9474;BME280;8865;47.636;7.692;2023-03-20T06:50:24;98803.97;;;9.55;100.00
9474;BME280;8865;47.636;7.692;2023-03-20T06:52:50;98805.25;;;9.61;100.00
9474;BME280;8865;47.636;7.692;2023-03-20T06:55:17;98804.94;;;9.65;100.00
9474;BME280;8865;47.636;7.692;2023-03-20T06:57:43;98800.91;;;9.73;100.00
9474;BME280;8865;47.636;7.692;2023-03-20T07:00:10;98808.31;;;9.79;100.00
9474;BME280;8865;47.636;7.692;2023-03-20T07:02:36;98806.19;;;9.84;100.00
9474;BME280;8865;47.636;7.692;2023-03-20T07:05:02;98805.72;;;9.90;100.00
9474;BME280;8865;47.636;7.692;2023-03-20T07:07:29;98810.38;;;9.98;100.00
9474;BME280;8865;47.636;7.692;2023-03-20T07:09:55;98812.66;;;10.02;100.00
9474;BME280;8865;47.636;7.692;2023-03-20T07:12:20;98814.81;;;10.09;100.00
9474;BME280;8865;47.636;7.692;2023-03-20T07:14:48;98813.88;;;10.10;100.00
9474;BME280;8865;47.636;7.692;2023-03-20T07:17:14;98814.09;;;10.07;100.00
9474;BME280;8865;47.636;7.692;2023-03-20T07:19:40;98810.44;;;10.09;100.00
9474;BME280;8865;47.636;7.692;2023-03-20T07:22:08;98813.06;;;10.09;100.00
9474;BME280;8865;47.636;7.692;2023-03-20T07:24:40;98813.06;;;10.09;100.00
9474;BME280;8865;47.636;7.692;2023-03-20T07:27:06;98812.69;;;10.14;100.00
9474;BME280;8865;47.636;7.692;2023-03-20T07:29:32;98811.63;;;10.16;100.00
9474;BME280;8865;47.636;7.692;2023-03-20T07:31:58;98811.03;;;10.24;100.00
9474;BME280;8865;47.636;7.692;2023-03-20T07:34:25;98810.09;;;10.25;100.00
9474;BME280;8865;47.636;7.692;2023-03-20T07:36:51;98809.28;;;10.25;100.00
9474;BME280;8865;47.636;7.692;2023-03-20T07:39:17;98813.94;;;10.32;100.00
9474;BME280;8865;47.636;7.692;2023-03-20T07:41:43;98818.84;;;10.37;100.00
9474;BME280;8865;47.636;7.692;2023-03-20T07:44:09;98826.47;;;10.40;100.00
9474;BME280;8865;47.636;7.692;2023-03-20T07:46:35;98828.47;;;10.36;100.00
9474;BME280;8865;47.636;7.692;2023-03-20T07:49:01;98833.69;;;10.36;100.00
9474;BME280;8865;47.636;7.692;2023-03-20T07:51:27;98839.69;;;10.39;100.00
9474;BME280;8865;47.636;7.692;2023-03-20T07:53:53;98839.22;;;10.45;100.00
9474;BME280;8865;47.636;7.692;2023-03-20T07:56:19;98834.44;;;10.50;100.00
9474;BME280;8865;47.636;7.692;2023-03-20T07:58:46;98835.66;;;10.57;100.00
9474;BME280;8865;47.636;7.692;2023-03-20T08:01:11;98835.19;;;10.63;100.00
9474;BME280;8865;47.636;7.692;2023-03-20T08:03:37;98833.75;;;10.70;100.00
9474;BME280;8865;47.636;7.692;2023-03-20T08:06:04;98838.28;;;10.80;100.00
9474;BME280;8865;47.636;7.692;2023-03-20T08:08:32;98829.44;;;10.81;100.00
9474;BME280;8865;47.636;7.692;2023-03-20T08:10:58;98823.50;;;10.90;100.00
9474;BME280;8865;47.636;7.692;2023-03-20T08:13:24;98827.88;;;11.01;100.00
9474;BME280;8865;47.636;7.692;2023-03-20T08:15:50;98814.06;;;11.10;100.00
9474;BME280;8865;47.636;7.692;2023-03-20T08:18:16;98808.69;;;11.12;100.00
9474;BME280;8865;47.636;7.692;2023-03-20T08:20:42;98804.50;;;11.20;100.00
9474;BME280;8865;47.636;7.692;2023-03-20T08:23:08;98812.69;;;11.27;100.00
9474;BME280;8865;47.636;7.692;2023-03-20T08:25:34;98826.06;;;11.35;100.00
9474;BME280;8865;47.636;7.692;2023-03-20T08:28:00;98817.44;;;11.33;100.00
9474;BME280;8865;47.636;7.692;2023-03-20T08:30:26;98807.22;;;11.30;100.00
9474;BME280;8865;47.636;7.692;2023-03-20T08:32:52;98807.34;;;11.29;100.00
9474;BME280;8865;47.636;7.692;2023-03-20T08:35:18;98802.72;;;11.21;100.00
9474;BME280;8865;47.636;7.692;2023-03-20T08:37:44;98800.56;;;11.26;100.00
9474;BME280;8865;47.636;7.692;2023-03-20T08:40:11;98806.19;;;11.21;100.00
9474;BME280;8865;47.636;7.692;2023-03-20T08:42:37;98809.41;;;11.02;100.00
9474;BME280;8865;47.636;7.692;2023-03-20T08:45:03;98811.94;;;10.93;100.00
9474;BME280;8865;47.636;7.692;2023-03-20T08:47:29;98807.19;;;10.75;100.00
9474;BME280;8865;47.636;7.692;2023-03-20T08:49:55;98800.16;;;10.98;100.00
9474;BME280;8865;47.636;7.692;2023-03-20T08:52:21;98805.22;;;11.22;100.00
9474;BME280;8865;47.636;7.692;2023-03-20T08:54:47;98798.72;;;11.38;100.00
9474;BME280;8865;47.636;7.692;2023-03-20T08:57:13;98801.94;;;11.41;100.00
9474;BME280;8865;47.636;7.692;2023-03-20T08:59:39;98801.16;;;11.62;100.00
9474;BME280;8865;47.636;7.692;2023-03-20T09:02:05;98793.75;;;11.67;100.00
9474;BME280;8865;47.636;7.692;2023-03-20T09:04:31;98787.78;;;11.97;100.00
9474;BME280;8865;47.636;7.692;2023-03-20T09:06:57;98799.03;;;12.30;100.00
9474;BME280;8865;47.636;7.692;2023-03-20T09:09:25;98797.94;;;12.33;100.00
9474;BME280;8865;47.636;7.692;2023-03-20T09:11:57;98777.28;;;12.49;100.00
9474;BME280;8865;47.636;7.692;2023-03-20T09:14:25;98782.47;;;12.09;100.00
9474;BME280;8865;47.636;7.692;2023-03-20T09:16:52;98782.78;;;12.77;100.00
9474;BME280;8865;47.636;7.692;2023-03-20T09:19:18;98771.13;;;13.20;100.00
9474;BME280;8865;47.636;7.692;2023-03-20T09:21:45;98776.59;;;13.58;100.00
9474;BME280;8865;47.636;7.692;2023-03-20T09:24:11;98768.53;;;13.89;100.00
9474;BME280;8865;47.636;7.692;2023-03-20T09:26:38;98762.06;;;14.31;100.00
9474;BME280;8865;47.636;7.692;2023-03-20T09:29:04;98764.97;;;14.75;100.00
9474;BME280;8865;47.636;7.692;2023-03-20T09:31:31;98768.91;;;15.16;100.00
9474;BME280;8865;47.636;7.692;2023-03-20T09:33:57;98770.56;;;15.53;100.00
9474;BME280;8865;47.636;7.692;2023-03-20T09:36:23;98771.34;;;16.60;100.00
9474;BME280;8865;47.636;7.692;2023-03-20T09:38:49;98774.66;;;16.97;100.00
9474;BME280;8865;47.636;7.692;2023-03-20T09:41:23;98771.75;;;17.33;100.00
9474;BME280;8865;47.636;7.692;2023-03-20T09:49:35;98775.09;;;17.84;100.00
9474;BME280;8865;47.636;7.692;2023-03-20T09:54:42;98768.66;;;17.62;100.00
9474;BME280;8865;47.636;7.692;2023-03-20T09:57:18;98769.00;;;17.76;100.00
9474;BME280;8865;47.636;7.692;2023-03-20T09:59:47;98777.25;;;17.73;100.00
9474;BME280;8865;47.636;7.692;2023-03-20T10:02:18;98778.09;;;17.73;100.00
9474;BME280;8865;47.636;7.692;2023-03-20T10:04:52;98774.47;;;17.99;96.02
9474;BME280;8865;47.636;7.692;2023-03-20T10:07:19;98766.28;;;18.81;92.80
9474;BME280;8865;47.636;7.692;2023-03-20T10:09:45;98764.34;;;21.33;73.38
9474;BME280;8865;47.636;7.692;2023-03-20T10:18:25;98746.16;;;28.73;38.26
9474;BME280;8865;47.636;7.692;2023-03-20T10:21:03;98747.09;;;28.79;37.34
9474;BME280;8865;47.636;7.692;2023-03-20T10:26:13;98734.47;;;30.66;31.09
9474;BME280;8865;47.636;7.692;2023-03-20T10:28:49;98737.88;;;32.30;27.65
9474;BME280;8865;47.636;7.692;2023-03-20T10:34:29;98744.09;;;35.14;23.62
9474;BME280;8865;47.636;7.692;2023-03-20T10:42:27;98744.78;;;30.30;25.90
9474;BME280;8865;47.636;7.692;2023-03-20T10:45:05;98748.59;;;27.56;29.21
9474;BME280;8865;47.636;7.692;2023-03-20T10:47:35;98742.19;;;24.50;34.40
9474;BME280;8865;47.636;7.692;2023-03-20T10:50:06;98745.34;;;23.60;37.29
9474;BME280;8865;47.636;7.692;2023-03-20T10:52:38;98751.31;;;21.45;39.12
9474;BME280;8865;47.636;7.692;2023-03-20T10:55:19;98753.06;;;20.80;43.86
9474;BME280;8865;47.636;7.692;2023-03-20T10:57:51;98748.19;;;20.24;50.79
9474;BME280;8865;47.636;7.692;2023-03-20T11:00:22;98750.34;;;19.44;51.22
9474;BME280;8865;47.636;7.692;2023-03-20T11:02:49;98747.88;;;18.88;54.13
9474;BME280;8865;47.636;7.692;2023-03-20T11:05:33;98748.19;;;18.45;56.21
9474;BME280;8865;47.636;7.692;2023-03-20T11:08:13;98758.03;;;17.71;64.83
9474;BME280;8865;47.636;7.692;2023-03-20T11:10:41;98761.16;;;17.41;72.75
9474;BME280;8865;47.636;7.692;2023-03-20T11:15:44;98759.66;;;16.71;82.88
9474;BME280;8865;47.636;7.692;2023-03-20T11:18:11;98753.59;;;16.87;77.96
9474;BME280;8865;47.636;7.692;2023-03-20T11:20:49;98757.03;;;16.79;74.78
9474;BME280;8865;47.636;7.692;2023-03-20T11:23:18;98751.41;;;16.83;71.53
9474;BME280;8865;47.636;7.692;2023-03-20T11:26:00;98753.25;;;16.48;70.06
9474;BME280;8865;47.636;7.692;2023-03-20T11:33:44;98743.78;;;17.14;72.03
9474;BME280;8865;47.636;7.692;2023-03-20T11:36:30;98737.50;;;17.31;64.10
9474;BME280;8865;47.636;7.692;2023-03-20T11:39:22;98734.53;;;17.51;72.47
9474;BME280;8865;47.636;7.692;2023-03-20T11:41:55;98734.19;;;17.71;72.30
9474;BME280;8865;47.636;7.692;2023-03-20T11:47:20;98735.34;;;17.84;72.97
9474;BME280;8865;47.636;7.692;2023-03-20T11:49:58;98732.47;;;18.35;71.39
9474;BME280;8865;47.636;7.692;2023-03-20T11:52:34;98730.34;;;18.31;62.34
9474;BME280;8865;47.636;7.692;2023-03-20T11:55:05;98732.44;;;18.91;66.24
9474;BME280;8865;47.636;7.692;2023-03-20T11:57:36;98724.44;;;19.00;63.57
9474;BME280;8865;47.636;7.692;2023-03-20T12:00:19;98727.38;;;19.05;61.90
9474;BME280;8865;47.636;7.692;2023-03-20T12:02:46;98724.63;;;19.44;61.44
9474;BME280;8865;47.636;7.692;2023-03-20T12:07:56;98715.78;;;19.29;55.47
9474;BME280;8865;47.636;7.692;2023-03-20T12:10:29;98706.22;;;19.81;58.60
9474;BME280;8865;47.636;7.692;2023-03-20T12:13:01;98704.97;;;19.69;58.23
9474;BME280;8865;47.636;7.692;2023-03-20T12:15:33;98711.66;;;18.95;58.88
9474;BME280;8865;47.636;7.692;2023-03-20T12:21:06;98702.44;;;18.43;61.85
9474;BME280;8865;47.636;7.692;2023-03-20T12:26:24;98701.28;;;18.85;56.98
9474;BME280;8865;47.636;7.692;2023-03-20T12:31:48;98703.63;;;20.11;48.80
9474;BME280;8865;47.636;7.692;2023-03-20T12:34:20;98694.16;;;20.08;48.94
9474;BME280;8865;47.636;7.692;2023-03-20T12:36:48;98686.84;;;20.10;47.57
9474;BME280;8865;47.636;7.692;2023-03-20T12:39:20;98682.94;;;20.73;46.00
9474;BME280;8865;47.636;7.692;2023-03-20T12:42:00;98675.97;;;24.12;39.41
9474;BME280;8865;47.636;7.692;2023-03-20T12:47:08;98670.72;;;26.59;35.12
9474;BME280;8865;47.636;7.692;2023-03-20T13:05:56;98655.63;;;20.85;41.87
9474;BME280;8865;47.636;7.692;2023-03-20T13:11:04;98645.81;;;21.51;41.53
9474;BME280;8865;47.636;7.692;2023-03-20T13:19:08;98630.00;;;29.54;27.56
9474;BME280;8865;47.636;7.692;2023-03-20T13:24:29;98619.59;;;34.90;21.44
9474;BME280;8865;47.636;7.692;2023-03-20T13:27:12;98605.72;;;36.47;19.21
9474;BME280;8865;47.636;7.692;2023-03-20T13:30:14;98610.75;;;36.97;17.51
9474;BME280;8865;47.636;7.692;2023-03-20T13:37:59;98595.91;;;38.33;15.87
9474;BME280;8865;47.636;7.692;2023-03-20T13:40:28;98591.88;;;38.53;15.60
9474;BME280;8865;47.636;7.692;2023-03-20T13:42:59;98589.22;;;38.26;16.39
9474;BME280;8865;47.636;7.692;2023-03-20T13:45:33;98586.72;;;37.74;16.35
9474;BME280;8865;47.636;7.692;2023-03-20T13:48:08;98578.50;;;38.52;16.56
9474;BME280;8865;47.636;7.692;2023-03-20T13:50:53;98581.91;;;38.35;15.82
9474;BME280;8865;47.636;7.692;2023-03-20T13:56:12;98580.59;;;37.35;15.99
9474;BME280;8865;47.636;7.692;2023-03-20T13:58:45;98576.38;;;37.84;15.89
9474;BME280;8865;47.636;7.692;2023-03-20T14:01:20;98569.50;;;38.51;15.50
9474;BME280;8865;47.636;7.692;2023-03-20T14:03:48;98578.63;;;39.69;14.37
9474;BME280;8865;47.636;7.692;2023-03-20T14:12:31;98570.50;;;29.66;21.77
9474;BME280;8865;47.636;7.692;2023-03-20T14:14:58;98571.00;;;27.80;25.56
9474;BME280;8865;47.636;7.692;2023-03-20T14:17:29;98563.53;;;26.69;26.79
9474;BME280;8865;47.636;7.692;2023-03-20T14:20:54;98568.56;;;24.85;28.97
9474;BME280;8865;47.636;7.692;2023-03-20T14:22:55;98578.09;;;23.57;31.30
9474;BME280;8865;47.636;7.692;2023-03-20T14:25:22;98578.09;;;22.70;32.34
9474;BME280;8865;47.636;7.692;2023-03-20T14:27:55;98580.88;;;21.58;36.11
9474;BME280;8865;47.636;7.692;2023-03-20T14:38:39;98573.19;;;19.30;43.70
9474;BME280;8865;47.636;7.692;2023-03-20T14:46:27;98579.56;;;19.20;44.47
9474;BME280;8865;47.636;7.692;2023-03-20T14:48:55;98571.72;;;19.42;43.73
9474;BME280;8865;47.636;7.692;2023-03-20T14:51:40;98572.75;;;19.71;45.06
9474;BME280;8865;47.636;7.692;2023-03-20T14:56:50;98558.69;;;20.58;40.79
9474;BME280;8865;47.636;7.692;2023-03-20T14:59:19;98555.34;;;20.93;41.61
9474;BME280;8865;47.636;7.692;2023-03-20T15:02:19;98554.97;;;20.96;39.75
9474;BME280;8865;47.636;7.692;2023-03-20T15:04:49;98554.81;;;20.61;40.78
9474;BME280;8865;47.636;7.692;2023-03-20T15:07:30;98556.78;;;20.52;42.59
9474;BME280;8865;47.636;7.692;2023-03-20T15:10:00;98554.22;;;20.22;42.31
9474;BME280;8865;47.636;7.692;2023-03-20T15:12:33;98546.78;;;20.17;42.50
9474;BME280;8865;47.636;7.692;2023-03-20T15:15:18;98547.19;;;19.70;42.52
9474;BME280;8865;47.636;7.692;2023-03-20T15:17:47;98540.69;;;19.27;43.84
9474;BME280;8865;47.636;7.692;2023-03-20T15:20:15;98540.50;;;18.68;45.85
9474;BME280;8865;47.636;7.692;2023-03-20T15:22:49;98540.16;;;18.39;45.62
9474;BME280;8865;47.636;7.692;2023-03-20T15:25:17;98547.53;;;18.29;48.72
9474;BME280;8865;47.636;7.692;2023-03-20T15:27:44;98554.59;;;18.06;49.53
9474;BME280;8865;47.636;7.692;2023-03-20T15:30:14;98558.53;;;17.70;48.97
9474;BME280;8865;47.636;7.692;2023-03-20T15:32:42;98552.53;;;17.93;47.83
9474;BME280;8865;47.636;7.692;2023-03-20T15:35:15;98543.88;;;17.99;46.75
9474;BME280;8865;47.636;7.692;2023-03-20T15:37:44;98544.75;;;17.91;48.70
9474;BME280;8865;47.636;7.692;2023-03-20T15:40:21;98543.28;;;17.72;49.15
9474;BME280;8865;47.636;7.692;2023-03-20T15:43:03;98546.69;;;17.41;53.25
9474;BME280;8865;47.636;7.692;2023-03-20T15:45:32;98548.66;;;17.47;52.83
9474;BME280;8865;47.636;7.692;2023-03-20T15:48:21;98547.03;;;17.30;55.00
9474;BME280;8865;47.636;7.692;2023-03-20T15:50:55;98546.41;;;17.28;55.79
9474;BME280;8865;47.636;7.692;2023-03-20T15:53:29;98537.78;;;17.26;54.16
9474;BME280;8865;47.636;7.692;2023-03-20T15:56:03;98540.78;;;17.14;56.90
9474;BME280;8865;47.636;7.692;2023-03-20T15:58:30;98542.94;;;17.03;55.96
9474;BME280;8865;47.636;7.692;2023-03-20T16:00:58;98541.63;;;17.07;57.07